createdAt,value
2023-02-19T00:06:07.446Z,10.60
2023-02-19T00:13:09.076Z,8.73
2023-02-19T00:20:10.658Z,7.15
2023-02-19T00:27:12.274Z,10.98
2023-02-19T00:34:14.162Z,6.00
2023-02-19T00:41:21.929Z,9.95
2023-02-19T00:48:23.540Z,7.90
2023-02-19T00:55:25.091Z,10.70
2023-02-19T01:02:26.901Z,7.03
2023-02-19T01:09:28.597Z,3.65
2023-02-19T01:16:30.947Z,3.53
2023-02-19T01:23:32.764Z,4.03
2023-02-19T01:30:37.693Z,3.65
2023-02-19T01:37:39.270Z,3.50
2023-02-19T01:44:46.718Z,4.50
2023-02-19T01:51:51.353Z,4.47
2023-02-19T01:58:53.235Z,3.83
2023-02-19T02:06:16.331Z,5.00
2023-02-19T02:13:17.922Z,25.90
2023-02-19T02:20:57.139Z,8.43
2023-02-19T02:28:35.736Z,5.40
2023-02-19T02:35:51.260Z,5.20
2023-02-19T02:42:57.526Z,5.82
2023-02-19T02:50:05.571Z,9.65
2023-02-19T02:57:09.340Z,20.50
2023-02-19T03:04:34.176Z,4.75
2023-02-19T03:11:54.886Z,14.02
2023-02-19T03:19:15.016Z,23.88
2023-02-19T03:26:17.445Z,4.00
2023-02-19T03:33:26.939Z,5.53
2023-02-19T03:40:29.913Z,6.55
2023-02-19T03:47:59.102Z,3.85
2023-02-19T03:55:25.604Z,4.88
2023-02-19T04:02:41.504Z,12.65
2023-02-19T04:09:48.246Z,26.70
2023-02-19T04:16:55.653Z,24.43
2023-02-19T04:23:57.312Z,7.22
2023-02-19T04:30:58.881Z,6.57
2023-02-19T04:38:00.475Z,8.27
2023-02-19T04:45:02.036Z,10.77
2023-02-19T04:52:03.680Z,18.42
2023-02-19T04:59:05.785Z,20.75
2023-02-19T05:06:08.703Z,26.63
2023-02-19T05:13:10.367Z,44.83
2023-02-19T05:20:12.012Z,51.88
2023-02-19T05:27:13.637Z,40.88
2023-02-19T05:34:15.307Z,26.13
2023-02-19T05:41:18.612Z,24.52
2023-02-19T05:48:20.171Z,22.92
2023-02-19T05:55:21.731Z,30.15
2023-02-19T06:02:23.316Z,27.98
2023-02-19T06:09:24.893Z,32.22
2023-02-19T06:16:26.613Z,40.72
2023-02-19T06:23:29.143Z,45.30
2023-02-19T06:30:30.746Z,49.88
2023-02-19T06:37:32.320Z,52.25
2023-02-19T06:44:33.903Z,54.50
2023-02-19T06:51:35.418Z,62.25
2023-02-19T06:58:36.945Z,67.13
2023-02-19T07:05:38.480Z,72.00
2023-02-19T07:12:40.020Z,71.03
2023-02-19T07:19:41.583Z,81.15
2023-02-19T07:26:43.187Z,82.32
2023-02-19T07:33:45.144Z,80.60
2023-02-19T07:40:56.857Z,83.38
2023-02-19T07:47:58.653Z,84.82
2023-02-19T07:55:00.179Z,96.70
2023-02-19T08:02:20.429Z,62.85
2023-02-19T08:09:21.958Z,61.28
2023-02-19T08:16:36.725Z,65.50
2023-02-19T08:23:42.532Z,89.38
2023-02-19T08:30:45.299Z,49.20
2023-02-19T08:37:46.927Z,47.72
2023-02-19T08:44:48.448Z,49.63
2023-02-19T08:51:50.006Z,47.20
2023-02-19T08:58:51.569Z,51.58
2023-02-19T09:05:53.126Z,53.38
2023-02-19T09:12:54.734Z,49.25
2023-02-19T09:19:56.333Z,61.03
2023-02-19T09:26:57.950Z,77.40
2023-02-19T09:33:59.659Z,65.00
2023-02-19T09:41:06.826Z,65.10
2023-02-19T09:48:10.183Z,56.42
2023-02-19T09:55:20.605Z,61.20
2023-02-19T10:02:23.417Z,59.58
2023-02-19T10:09:26.988Z,25.85
2023-02-19T10:16:28.663Z,31.65
2023-02-19T10:23:30.245Z,33.85
2023-02-19T10:30:33.178Z,11.48
2023-02-19T10:37:34.955Z,34.40
2023-02-19T10:44:41.670Z,35.80
2023-02-19T10:51:44.332Z,47.72
2023-02-19T10:58:47.210Z,46.60
2023-02-19T11:06:01.708Z,46.08
2023-02-19T11:13:04.439Z,54.80
2023-02-19T11:20:14.527Z,56.13
2023-02-19T11:27:22.930Z,55.28
2023-02-19T11:34:31.547Z,60.78
2023-02-19T11:41:51.447Z,76.10
2023-02-19T11:49:04.941Z,90.75
2023-02-19T11:56:21.023Z,124.50
2023-02-19T12:03:57.275Z,109.43
2023-02-19T12:11:24.186Z,70.50
2023-02-19T12:18:44.703Z,19.80
2023-02-19T12:33:25.911Z,8.93
2023-02-19T12:40:45.983Z,47.05
2023-02-19T12:48:05.856Z,13.25
2023-02-19T12:55:22.833Z,6.10
2023-02-19T13:02:29.091Z,2.53
2023-02-19T13:09:58.813Z,7.97
2023-02-19T13:17:03.841Z,2.17
2023-02-19T13:24:13.870Z,2.72
2023-02-19T13:31:40.391Z,2.23
2023-02-19T13:38:45.925Z,1.95
2023-02-19T13:45:47.577Z,19.88
2023-02-19T13:52:49.937Z,19.33
2023-02-19T13:59:51.639Z,25.88
2023-02-19T14:07:05.418Z,4.57
2023-02-19T14:14:26.797Z,5.25
2023-02-19T14:21:36.306Z,37.55
2023-02-19T14:28:43.275Z,21.65
2023-02-19T14:35:46.389Z,24.08
2023-02-19T14:42:48.615Z,9.30
2023-02-19T14:49:51.943Z,5.72
2023-02-19T14:56:53.542Z,7.55
2023-02-19T15:03:56.475Z,5.18
2023-02-19T15:10:58.099Z,28.45
2023-02-19T15:17:59.993Z,34.72
2023-02-19T15:25:02.499Z,44.80
2023-02-19T15:32:17.422Z,47.20
2023-02-19T15:39:23.111Z,26.58
2023-02-19T15:46:25.030Z,22.92
2023-02-19T15:53:29.610Z,22.60
2023-02-19T16:00:37.265Z,28.35
2023-02-19T16:07:38.850Z,27.83
2023-02-19T16:14:40.394Z,37.97
2023-02-19T16:21:42.906Z,35.40
2023-02-19T16:28:44.526Z,37.40
2023-02-19T16:35:48.032Z,38.20
2023-02-19T16:42:49.613Z,46.22
2023-02-19T16:49:51.255Z,52.30
2023-02-19T16:56:52.796Z,48.28
2023-02-19T17:03:58.299Z,53.28
2023-02-19T17:11:02.087Z,50.00
2023-02-19T17:18:03.744Z,55.17
2023-02-19T17:25:05.614Z,54.30
2023-02-19T17:32:07.319Z,68.18
2023-02-19T17:39:14.960Z,4.38
2023-02-19T17:46:21.745Z,3.33
2023-02-19T17:53:23.281Z,5.15
2023-02-19T18:00:27.008Z,19.67
2023-02-19T18:07:28.656Z,49.78
2023-02-19T18:14:31.131Z,13.73
2023-02-19T18:21:32.704Z,43.13
2023-02-19T18:28:34.762Z,36.22
2023-02-19T18:35:36.408Z,2.70
2023-02-19T18:42:37.944Z,2.42
2023-02-19T18:49:39.529Z,3.25
2023-02-19T18:56:44.433Z,2.35
2023-02-19T19:03:46.111Z,10.70
2023-02-19T19:10:47.622Z,2.22
2023-02-19T19:17:49.485Z,2.05
2023-02-19T19:24:51.094Z,2.13
2023-02-19T19:31:52.876Z,2.33
2023-02-19T19:38:54.477Z,35.47
2023-02-19T19:45:56.220Z,13.82
2023-02-19T19:52:57.889Z,2.17
2023-02-19T19:59:59.517Z,1.85
2023-02-19T20:07:01.687Z,16.73
2023-02-19T20:14:03.300Z,2.47
2023-02-19T20:21:05.311Z,2.95
2023-02-19T20:28:06.827Z,2.80
2023-02-19T20:35:08.436Z,3.28
2023-02-19T20:42:09.962Z,3.08
2023-02-19T20:49:12.288Z,3.20
2023-02-19T20:56:14.203Z,3.17
2023-02-19T21:03:15.832Z,2.92
2023-02-19T21:10:17.552Z,3.13
2023-02-19T21:17:19.055Z,4.30
2023-02-19T21:24:20.609Z,35.17
2023-02-19T21:31:24.514Z,9.07
2023-02-19T21:38:26.967Z,44.42
2023-02-19T21:45:28.623Z,35.70
2023-02-19T21:52:31.062Z,28.15
2023-02-19T21:59:32.811Z,40.05
2023-02-19T22:06:34.403Z,49.60
2023-02-19T22:13:35.919Z,33.95
2023-02-19T22:20:39.344Z,23.13
2023-02-19T22:27:40.875Z,34.22
2023-02-19T22:34:42.559Z,38.58
2023-02-19T22:41:44.198Z,10.73
2023-02-19T22:48:45.916Z,41.03
2023-02-19T22:55:47.414Z,38.90
2023-02-19T23:02:48.998Z,37.97
2023-02-19T23:09:51.043Z,44.95
2023-02-19T23:16:52.636Z,44.10
2023-02-19T23:23:54.176Z,43.55
2023-02-19T23:30:55.775Z,30.80
2023-02-19T23:37:57.384Z,52.75
2023-02-19T23:44:58.991Z,25.02
2023-02-19T23:52:00.565Z,20.52
2023-02-19T23:59:02.137Z,21.92
